Startpagina
METAR-TAF:

METAR-TAF

Vliegvelden :

Ras al-Khaimah, Verenigde Arabische Emiraten

breedte: 25-37N, lengte: 055-56E, hoogte: 31 m

Actueel weer

Dit bericht is 22 minuten geleden gemaakt, om 23:40 UTC
Wind 4 kt uit het zuidwesten
Temperatuur 17°C
Vochtigheid 94%
Druk 1016 hPa
Zicht: 5000 m
Heiigheid

METAR: OMRK 232340Z 22004KT 5000 HZ NSC 17/16 Q1016 A3001

Tijdstip: 04:02 (00:02 UTC)

Verwachting

Dit bericht is 1 uur en het 6 minuten geleden gemaakt, om 22:56 UTC
Verwachting geldig van 24 om 00 UTC tot 25 om 06 UTC
Wind 2 kt uit variabele richting
Zicht: 8000 m
Kans 30%
van 24 om 00 UTC tot 24 om 05 UTC
Zicht: 4000 m
Heiigheid
Wijzigt naar
van 24 om 07 UTC tot 24 om 09 UTC
Wind 10 kt uit het noordnoordwesten
Wijzigt naar
van 24 om 14 UTC tot 24 om 16 UTC
Wind 2 kt uit variabele richting

TAF: OMRK 232256Z 2400/2506 VRB02KT 8000 NSC PROB30 2400/2405 4000 HZ BECMG 2407/2409 34010KT BECMG 2414/2416 VRB02KT

Waarnemingen en weersverwachtingen van meer dan 4000 vliegvelden (METAR en TAF).

De beschikbare stations zijn de gele en rode punten op de kaart.

Ga met uw muis naar het station om de naam te zien.

Klik dan om waarnemingen en weersverwachtingen te zien.

kaart wijzigen: klik op de groene knoppen met een zwart kruis om in te zoomen, op de groene knop met een streepje om uit te zoomen of op de groene pijlen voor aangrenzende kaarten.


METAR-TAF: